createdAt,value
2022-10-05T00:00:13.979Z,93.5
2022-10-05T00:05:20.073Z,93.5
2022-10-05T00:10:26.168Z,93.5
2022-10-05T00:15:32.281Z,95
2022-10-05T00:20:38.368Z,95.5
2022-10-05T00:25:43.477Z,96
2022-10-05T00:30:49.568Z,96.5
2022-10-05T00:35:55.719Z,96
2022-10-05T00:41:01.756Z,96
2022-10-05T00:46:07.849Z,96.5
2022-10-05T00:51:13.981Z,97
2022-10-05T00:56:20.052Z,97.5
2022-10-05T01:01:26.138Z,98
2022-10-05T01:06:32.250Z,98.5
2022-10-05T01:11:38.330Z,99.5
2022-10-05T01:16:44.430Z,99.5
2022-10-05T01:21:50.524Z,99.5
2022-10-05T01:26:56.626Z,99.5
2022-10-05T01:32:01.730Z,99.5
2022-10-05T01:37:07.859Z,99.5
2022-10-05T01:42:13.914Z,98
2022-10-05T01:47:20.017Z,96.5
2022-10-05T01:52:26.120Z,95.5
2022-10-05T01:57:32.203Z,95.5
2022-10-05T02:02:37.334Z,95
2022-10-05T02:07:43.440Z,95
2022-10-05T02:12:49.517Z,95.5
2022-10-05T02:17:55.602Z,96
2022-10-05T02:23:01.711Z,95.5
2022-10-05T02:28:07.792Z,97
2022-10-05T02:33:13.918Z,98
2022-10-05T02:38:19.989Z,97.5
2022-10-05T02:43:26.103Z,97.5
2022-10-05T02:48:32.185Z,97.5
2022-10-05T02:53:38.324Z,99
2022-10-05T02:58:44.371Z,99.5
2022-10-05T03:03:50.497Z,99.5
2022-10-05T03:08:55.585Z,99.5
2022-10-05T03:14:01.659Z,99.5
2022-10-05T03:19:07.767Z,99.5
2022-10-05T03:24:13.871Z,99.5
2022-10-05T03:29:19.951Z,99.5
2022-10-05T03:34:26.102Z,99.5
2022-10-05T03:39:32.151Z,99.5
2022-10-05T03:44:38.255Z,99.5
2022-10-05T03:49:44.355Z,99.5
2022-10-05T03:54:50.436Z,99.5
2022-10-05T03:59:56.536Z,99.5
2022-10-05T04:05:02.634Z,99.5
2022-10-05T04:10:08.735Z,99.5
2022-10-05T04:15:13.852Z,99.5
2022-10-05T04:20:19.943Z,99.5
2022-10-05T04:25:26.127Z,99.5
2022-10-05T04:30:32.127Z,99.5
2022-10-05T04:35:38.252Z,99.5
2022-10-05T04:40:44.327Z,99.5
2022-10-05T04:45:50.423Z,99.5
2022-10-05T04:50:56.515Z,99.5
2022-10-05T04:56:02.601Z,99.5
2022-10-05T05:01:08.718Z,99.5
2022-10-05T05:06:14.819Z,99.5
2022-10-05T05:11:20.918Z,99.5
2022-10-05T05:16:26.995Z,99.5
2022-10-05T05:21:32.101Z,99.5
2022-10-05T05:26:38.209Z,99.5
2022-10-05T05:31:44.312Z,99.5
2022-10-05T05:36:50.473Z,99.5
2022-10-05T05:41:56.497Z,99.5
2022-10-05T05:47:02.599Z,99.5
2022-10-05T05:52:08.748Z,99.5
2022-10-05T05:57:14.822Z,99.5
2022-10-05T06:02:20.987Z,99.5
2022-10-05T06:07:27.031Z,99.5
2022-10-05T06:12:33.090Z,99.5
2022-10-05T06:17:39.325Z,99.5
2022-10-05T06:22:45.280Z,99
2022-10-05T06:27:50.517Z,98.5
2022-10-05T06:32:56.516Z,98.5
2022-10-05T06:38:02.655Z,98
2022-10-05T06:43:08.736Z,97.5
2022-10-05T06:48:14.798Z,97
2022-10-05T06:53:20.953Z,96.5
2022-10-05T06:58:26.956Z,95.5
2022-10-05T07:03:33.069Z,95
2022-10-05T07:08:39.145Z,94.5
2022-10-05T07:13:45.275Z,94
2022-10-05T07:18:51.324Z,94
2022-10-05T07:23:57.480Z,94
2022-10-05T07:29:03.567Z,93.5
2022-10-05T07:34:08.627Z,93
2022-10-05T07:39:14.748Z,92
2022-10-05T07:43:19.612Z,92
2022-10-05T07:48:26.085Z,91
2022-10-05T07:53:32.070Z,91
2022-10-05T07:58:38.210Z,90
2022-10-05T08:03:44.253Z,89
2022-10-05T08:08:50.428Z,88
2022-10-05T08:13:56.456Z,87
2022-10-05T08:19:02.550Z,85
2022-10-05T08:24:08.641Z,81.5
2022-10-05T08:29:14.752Z,79.5
2022-10-05T08:34:20.854Z,81.5
2022-10-05T08:39:26.956Z,82
2022-10-05T08:44:33.035Z,80.5
2022-10-05T08:49:39.143Z,77.5
2022-10-05T08:54:45.231Z,75
2022-10-05T08:59:51.341Z,74.5
2022-10-05T09:04:57.460Z,71
2022-10-05T09:10:03.524Z,71
2022-10-05T09:15:09.603Z,69.5
2022-10-05T09:20:15.731Z,70
2022-10-05T09:25:21.813Z,72.5
2022-10-05T09:30:26.904Z,69
2022-10-05T09:35:32.027Z,67.5
2022-10-05T09:40:38.128Z,63
2022-10-05T09:45:44.209Z,62.5
2022-10-05T09:50:50.397Z,59
2022-10-05T09:55:56.405Z,60
2022-10-05T10:01:02.604Z,60
2022-10-05T10:06:08.605Z,57
2022-10-05T10:11:14.694Z,61
2022-10-05T10:16:20.783Z,57
2022-10-05T10:21:26.881Z,54.5
2022-10-05T10:26:33.086Z,53
2022-10-05T10:31:39.248Z,51.5
2022-10-05T10:36:45.256Z,51
2022-10-05T10:41:50.304Z,53.5
2022-10-05T10:46:56.363Z,52
2022-10-05T10:52:02.500Z,51
2022-10-05T10:57:08.567Z,53.5
2022-10-05T11:02:14.732Z,55
2022-10-05T11:07:20.776Z,61
2022-10-05T11:12:26.878Z,62
2022-10-05T11:17:31.981Z,63
2022-10-05T11:22:37.092Z,65
2022-10-05T11:27:43.235Z,66.5
2022-10-05T11:32:49.308Z,66.5
2022-10-05T11:37:55.383Z,65
2022-10-05T11:43:01.598Z,66
2022-10-05T11:48:07.677Z,68.5
2022-10-05T11:53:13.771Z,69.5
2022-10-05T11:58:19.783Z,68
2022-10-05T12:03:25.873Z,68
2022-10-05T12:08:31.959Z,70
2022-10-05T12:13:38.081Z,69.5
2022-10-05T12:18:44.140Z,71
2022-10-05T12:23:50.245Z,70.5
2022-10-05T12:28:55.342Z,69
2022-10-05T12:34:01.446Z,69.5
2022-10-05T12:39:07.541Z,70
2022-10-05T12:44:13.696Z,70
2022-10-05T12:49:19.727Z,69
2022-10-05T12:54:25.857Z,67.5
2022-10-05T12:59:31.911Z,69
2022-10-05T13:04:37.050Z,68.5
2022-10-05T13:09:42.169Z,68.5
2022-10-05T13:14:48.245Z,68.5
2022-10-05T13:19:54.364Z,66
2022-10-05T13:25:00.443Z,68
2022-10-05T13:30:06.536Z,67.5
2022-10-05T13:35:12.665Z,65
2022-10-05T13:40:18.724Z,64
2022-10-05T13:45:24.828Z,65
2022-10-05T13:50:30.909Z,65.5
2022-10-05T13:55:37.012Z,65
2022-10-05T14:00:43.105Z,65.5
2022-10-05T14:05:49.231Z,62.5
2022-10-05T14:10:55.329Z,63
2022-10-05T14:16:00.433Z,63.5
2022-10-05T14:21:06.528Z,63.5
2022-10-05T14:26:12.625Z,64
2022-10-05T14:31:18.721Z,62
2022-10-05T14:36:24.832Z,57.5
2022-10-05T14:41:30.907Z,55
2022-10-05T14:46:37.031Z,57
2022-10-05T14:51:42.133Z,54
2022-10-05T14:56:47.245Z,51
2022-10-05T15:01:52.379Z,50.5
2022-10-05T15:06:57.468Z,54.5
2022-10-05T15:12:03.551Z,58.5
2022-10-05T15:17:09.651Z,61
2022-10-05T15:22:15.761Z,63
2022-10-05T15:27:21.852Z,63.5
2022-10-05T15:32:27.940Z,63.5
2022-10-05T15:37:34.053Z,63
2022-10-05T15:42:40.140Z,63.5
2022-10-05T15:47:46.243Z,63.5
2022-10-05T15:52:52.338Z,64
2022-10-05T15:57:58.429Z,66
2022-10-05T16:03:04.524Z,66.5
2022-10-05T16:08:10.656Z,67.5
2022-10-05T16:13:15.763Z,68.5
2022-10-05T16:18:21.817Z,69
2022-10-05T16:23:27.919Z,70
2022-10-05T16:28:34.017Z,72
2022-10-05T16:33:40.117Z,73
2022-10-05T16:38:46.326Z,73.5
2022-10-05T16:43:52.299Z,74.5
2022-10-05T16:48:57.421Z,75
2022-10-05T16:54:02.532Z,75
2022-10-05T16:59:07.651Z,75.5
2022-10-05T17:04:12.744Z,76
2022-10-05T17:09:17.871Z,76.5
2022-10-05T17:14:22.991Z,76
2022-10-05T17:19:29.064Z,76.5
2022-10-05T17:24:35.166Z,77
2022-10-05T17:29:41.271Z,77.5
2022-10-05T17:34:47.354Z,78
2022-10-05T17:44:59.588Z,80
2022-10-05T17:50:05.641Z,81
2022-10-05T17:55:11.776Z,82
2022-10-05T18:00:17.829Z,82.5
2022-10-05T18:05:23.926Z,82
2022-10-05T18:10:30.049Z,82
2022-10-05T18:15:36.133Z,81.5
2022-10-05T18:20:41.243Z,81
2022-10-05T18:25:47.322Z,80.5
2022-10-05T18:30:53.421Z,80.5
2022-10-05T18:35:59.543Z,80
2022-10-05T18:41:05.618Z,79.5
2022-10-05T18:46:11.725Z,78.5
2022-10-05T18:51:17.825Z,78
2022-10-05T18:56:23.888Z,78
2022-10-05T19:01:29.010Z,78
2022-10-05T19:06:34.126Z,78.5
2022-10-05T19:11:40.244Z,79.5
2022-10-05T19:16:46.351Z,80.5
2022-10-05T19:21:52.424Z,81
2022-10-05T19:26:58.539Z,82
2022-10-05T19:32:04.629Z,83.5
2022-10-05T19:37:10.722Z,84.5
2022-10-05T19:42:16.834Z,86
2022-10-05T19:47:22.923Z,87.5
2022-10-05T19:52:29.134Z,88.5
2022-10-05T19:57:35.098Z,89.5
2022-10-05T20:02:41.195Z,89.5
2022-10-05T20:07:47.301Z,89
2022-10-05T20:12:52.403Z,89
2022-10-05T20:17:58.507Z,89
2022-10-05T20:23:04.642Z,90
2022-10-05T20:28:10.722Z,90.5
2022-10-05T20:33:16.858Z,91
2022-10-05T20:38:22.906Z,90.5
2022-10-05T20:43:28.989Z,89
2022-10-05T20:48:34.109Z,88
2022-10-05T20:53:39.213Z,87
2022-10-05T20:58:44.348Z,86.5
2022-10-05T21:03:49.478Z,85.5
2022-10-05T21:08:55.549Z,85
2022-10-05T21:14:01.681Z,85
2022-10-05T21:19:07.742Z,85
2022-10-05T21:24:13.848Z,84.5
2022-10-05T21:29:19.933Z,84
2022-10-05T21:34:26.054Z,84.5
2022-10-05T21:39:32.139Z,85
2022-10-05T21:44:38.213Z,86
2022-10-05T21:49:44.324Z,86.5
2022-10-05T21:54:50.412Z,87
2022-10-05T21:59:56.517Z,87.5
2022-10-05T22:05:02.609Z,88
2022-10-05T22:10:07.747Z,89.5
2022-10-05T22:15:13.875Z,91
2022-10-05T22:20:19.920Z,91.5
2022-10-05T22:25:26.000Z,92
2022-10-05T22:30:32.151Z,92.5
2022-10-05T22:35:38.200Z,93
2022-10-05T22:40:44.356Z,93.5
2022-10-05T22:45:49.413Z,93.5
2022-10-05T22:50:54.529Z,93.5
2022-10-05T22:55:59.643Z,94
2022-10-05T23:01:04.757Z,94
2022-10-05T23:06:10.912Z,94
2022-10-05T23:11:16.962Z,95
2022-10-05T23:16:23.058Z,94.5
2022-10-05T23:21:29.170Z,95.5
2022-10-05T23:26:35.267Z,96.5
2022-10-05T23:31:41.347Z,98
2022-10-05T23:36:47.471Z,98.5
2022-10-05T23:41:53.538Z,97.5
2022-10-05T23:46:59.645Z,97
2022-10-05T23:52:05.739Z,96
2022-10-05T23:57:11.841Z,95.5
